Time;durP1;ratioP1;P1;durP2;ratioP2;P2;SDS_P1;SDS_P2;PMS_P1;PMS_P2;Temp;Humidity;BMP_temperature;BMP_pressure;BME280_temperature;BME280_humidity;BME280_pressure;Samples;Min_cycle;Max_cycle;Signal;HPM_P1;HPM_P2
2024/01/21 00:00:29;;;;;;;16.63;6.43;;;;;;;;;;5033697;28;20048;-57
2024/01/21 00:02:54;;;;;;;16.40;5.97;;;;;;;;;;5032928;28;20032;-57
2024/01/21 00:05:19;;;;;;;17.23;6.90;;;;;;;;;;5032550;28;20030;-58
2024/01/21 00:07:44;;;;;;;15.82;6.30;;;;;;;;;;5032486;28;20029;-57
2024/01/21 00:10:10;;;;;;;20.50;7.28;;;;;;;;;;5033342;28;20438;-57
2024/01/21 00:12:35;;;;;;;17.27;7.03;;;;;;;;;;5034771;28;20040;-57
2024/01/21 00:15:00;;;;;;;17.10;6.90;;;;;;;;;;5047219;28;20024;-56
2024/01/21 00:17:25;;;;;;;15.30;6.57;;;;;;;;;;5045395;28;20018;-56
2024/01/21 00:19:51;;;;;;;18.80;6.55;;;;;;;;;;5042333;28;20029;-57
2024/01/21 00:22:16;;;;;;;19.43;6.57;;;;;;;;;;5035951;28;20051;-57
2024/01/21 00:24:41;;;;;;;19.80;6.57;;;;;;;;;;5036235;28;20029;-57
2024/01/21 00:27:06;;;;;;;16.70;6.50;;;;;;;;;;5031824;28;20120;-56
2024/01/21 00:29:31;;;;;;;16.98;6.53;;;;;;;;;;5032710;28;20009;-57
2024/01/21 00:31:56;;;;;;;18.00;7.18;;;;;;;;;;5031421;28;20013;-56
2024/01/21 00:34:22;;;;;;;18.85;6.68;;;;;;;;;;5032283;28;20032;-57
2024/01/21 00:36:47;;;;;;;17.13;6.32;;;;;;;;;;5032746;28;20040;-57
2024/01/21 00:39:12;;;;;;;16.65;6.10;;;;;;;;;;5032307;28;20038;-56
2024/01/21 00:41:38;;;;;;;15.82;6.35;;;;;;;;;;5030651;28;20440;-57
2024/01/21 00:44:03;;;;;;;15.88;7.05;;;;;;;;;;5031100;28;20028;-58
2024/01/21 00:46:29;;;;;;;19.63;7.07;;;;;;;;;;5032074;28;20029;-56
2024/01/21 00:48:54;;;;;;;17.67;6.82;;;;;;;;;;5031381;28;20470;-56
2024/01/21 00:51:19;;;;;;;17.47;7.30;;;;;;;;;;5030207;28;20442;-57
2024/01/21 00:53:44;;;;;;;17.33;6.78;;;;;;;;;;5033404;28;20025;-56
2024/01/21 00:56:10;;;;;;;18.08;6.72;;;;;;;;;;5031927;28;20022;-56
2024/01/21 00:58:35;;;;;;;16.75;6.80;;;;;;;;;;5035390;28;20049;-56
2024/01/21 01:01:00;;;;;;;16.35;6.78;;;;;;;;;;5031298;28;20037;-56
2024/01/21 01:03:25;;;;;;;16.42;6.43;;;;;;;;;;5031082;28;20013;-57
2024/01/21 01:05:50;;;;;;;14.48;5.80;;;;;;;;;;5030732;28;20033;-57
2024/01/21 01:08:17;;;;;;;17.77;6.43;;;;;;;;;;5031915;28;20140;-57
2024/01/21 01:10:43;;;;;;;17.48;6.95;;;;;;;;;;5030754;28;20068;-56
2024/01/21 01:13:08;;;;;;;15.60;5.82;;;;;;;;;;5031746;28;20559;-57
2024/01/21 01:15:33;;;;;;;15.68;6.55;;;;;;;;;;5030691;28;20014;-56
2024/01/21 01:17:58;;;;;;;15.37;6.33;;;;;;;;;;5030552;28;20053;-56
2024/01/21 01:20:24;;;;;;;17.25;6.93;;;;;;;;;;5031417;28;20022;-56
2024/01/21 01:22:49;;;;;;;18.05;6.68;;;;;;;;;;5029226;28;20092;-56
2024/01/21 01:25:14;;;;;;;14.77;6.43;;;;;;;;;;5029274;28;20147;-57
2024/01/21 01:27:39;;;;;;;18.43;6.67;;;;;;;;;;5029144;28;20034;-56
2024/01/21 01:30:05;;;;;;;17.08;6.80;;;;;;;;;;5031051;28;20381;-57
2024/01/21 01:32:30;;;;;;;19.27;7.72;;;;;;;;;;5030355;28;20021;-56
2024/01/21 01:34:55;;;;;;;17.40;7.18;;;;;;;;;;5029892;28;20025;-56
2024/01/21 01:37:21;;;;;;;17.92;7.10;;;;;;;;;;5030771;28;20060;-56
2024/01/21 01:39:46;;;;;;;17.70;7.60;;;;;;;;;;5029846;28;20473;-57
2024/01/21 01:42:11;;;;;;;17.70;7.45;;;;;;;;;;5029376;28;20493;-56
2024/01/21 01:44:40;;;;;;;23.13;7.83;;;;;;;;;;5030065;28;20044;-56
2024/01/21 01:47:06;;;;;;;17.35;6.40;;;;;;;;;;5030522;28;20460;-57
2024/01/21 01:49:31;;;;;;;19.75;7.22;;;;;;;;;;5030865;28;20138;-57
2024/01/21 01:51:57;;;;;;;16.40;7.18;;;;;;;;;;5031136;28;20030;-57
2024/01/21 01:54:23;;;;;;;19.38;6.93;;;;;;;;;;5029793;28;20032;-56
2024/01/21 01:56:48;;;;;;;17.85;7.20;;;;;;;;;;5028833;28;20018;-57
2024/01/21 01:59:15;;;;;;;19.90;7.20;;;;;;;;;;5030583;28;20028;-57
2024/01/21 02:01:40;;;;;;;17.98;7.03;;;;;;;;;;5029558;28;20017;-56
2024/01/21 02:04:09;;;;;;;19.20;7.40;;;;;;;;;;5022708;28;20039;-57
2024/01/21 02:06:34;;;;;;;16.20;6.97;;;;;;;;;;5031226;28;20521;-56
2024/01/21 02:08:59;;;;;;;18.80;7.53;;;;;;;;;;5027595;28;20101;-61
2024/01/21 02:11:24;;;;;;;18.10;7.47;;;;;;;;;;5030047;28;20036;-56
2024/01/21 02:13:49;;;;;;;20.55;7.47;;;;;;;;;;5032938;28;20462;-56
2024/01/21 02:16:15;;;;;;;16.83;6.87;;;;;;;;;;5032733;28;20089;-56
2024/01/21 02:18:42;;;;;;;18.77;7.13;;;;;;;;;;5037194;28;20029;-57
2024/01/21 02:21:07;;;;;;;16.25;6.93;;;;;;;;;;5046766;28;20033;-56
2024/01/21 02:23:33;;;;;;;19.67;6.80;;;;;;;;;;5041375;28;20061;-57
2024/01/21 02:25:58;;;;;;;20.77;6.60;;;;;;;;;;5029434;28;20422;-56
2024/01/21 02:28:23;;;;;;;18.60;6.78;;;;;;;;;;5033060;28;20135;-56
2024/01/21 02:30:48;;;;;;;16.60;6.82;;;;;;;;;;5024843;28;20064;-58
2024/01/21 02:33:13;;;;;;;15.87;7.17;;;;;;;;;;5027619;28;20501;-56
2024/01/21 02:35:39;;;;;;;18.52;6.82;;;;;;;;;;5026841;28;20022;-57
2024/01/21 02:38:04;;;;;;;17.40;6.80;;;;;;;;;;5024587;28;20034;-58
2024/01/21 02:40:29;;;;;;;15.47;6.03;;;;;;;;;;5013956;28;20498;-55
2024/01/21 02:42:54;;;;;;;18.10;6.75;;;;;;;;;;5017980;28;20459;-56
2024/01/21 02:45:20;;;;;;;15.97;6.80;;;;;;;;;;5033935;28;20486;-57
2024/01/21 02:47:45;;;;;;;18.77;6.90;;;;;;;;;;5031594;28;20359;-58
2024/01/21 02:50:10;;;;;;;17.38;6.05;;;;;;;;;;5032728;28;20413;-57
2024/01/21 02:52:35;;;;;;;17.53;6.70;;;;;;;;;;5019078;28;20054;-57
2024/01/21 02:55:00;;;;;;;19.63;7.13;;;;;;;;;;5033648;28;20041;-56
2024/01/21 02:57:25;;;;;;;15.30;5.93;;;;;;;;;;5031131;28;20026;-55
2024/01/21 02:59:51;;;;;;;17.33;5.83;;;;;;;;;;5020850;28;20029;-56
2024/01/21 03:02:16;;;;;;;19.50;6.77;;;;;;;;;;5030880;28;20033;-57
2024/01/21 03:04:41;;;;;;;16.75;6.30;;;;;;;;;;5036713;28;20097;-60
2024/01/21 03:07:06;;;;;;;17.48;6.50;;;;;;;;;;5037141;28;20075;-55
2024/01/21 03:09:32;;;;;;;17.75;7.03;;;;;;;;;;5037938;28;20017;-57
2024/01/21 03:11:57;;;;;;;14.55;6.22;;;;;;;;;;5031071;28;20110;-56
2024/01/21 03:14:22;;;;;;;21.27;7.00;;;;;;;;;;5032482;28;20025;-56
2024/01/21 03:16:47;;;;;;;20.63;7.32;;;;;;;;;;5032194;28;20544;-57
2024/01/21 03:19:12;;;;;;;16.48;6.55;;;;;;;;;;5033115;28;20108;-56
2024/01/21 03:21:38;;;;;;;20.80;6.37;;;;;;;;;;5028883;28;20370;-57
2024/01/21 03:24:03;;;;;;;17.73;6.67;;;;;;;;;;5032104;28;20040;-57
2024/01/21 03:26:28;;;;;;;18.77;6.63;;;;;;;;;;5016695;28;20506;-56
2024/01/21 03:28:53;;;;;;;17.85;6.85;;;;;;;;;;5025791;28;20048;-56
2024/01/21 03:31:19;;;;;;;14.57;6.35;;;;;;;;;;5025950;28;20030;-56
2024/01/21 03:33:44;;;;;;;19.88;7.25;;;;;;;;;;5022232;28;20030;-56
2024/01/21 03:36:10;;;;;;;15.50;6.47;;;;;;;;;;5023390;28;20034;-56
2024/01/21 03:38:35;;;;;;;15.65;6.28;;;;;;;;;;5026400;28;20109;-56
2024/01/21 03:41:01;;;;;;;17.17;6.72;;;;;;;;;;5032774;28;20049;-57
2024/01/21 03:43:26;;;;;;;18.05;7.30;;;;;;;;;;5030566;28;20393;-56
2024/01/21 03:45:52;;;;;;;17.08;6.72;;;;;;;;;;5024917;28;20076;-57
2024/01/21 03:48:17;;;;;;;17.45;6.65;;;;;;;;;;5020633;28;20018;-56
2024/01/21 03:50:42;;;;;;;21.48;7.28;;;;;;;;;;5023321;28;20120;-58
2024/01/21 03:53:08;;;;;;;17.67;6.57;;;;;;;;;;5045014;28;20022;-57
2024/01/21 03:55:33;;;;;;;17.53;6.30;;;;;;;;;;5031829;28;20033;-56
2024/01/21 03:57:58;;;;;;;20.80;7.03;;;;;;;;;;5028618;28;20034;-56
2024/01/21 04:00:23;;;;;;;17.58;6.72;;;;;;;;;;5025955;28;20029;-56
2024/01/21 04:02:48;;;;;;;17.07;6.90;;;;;;;;;;5029027;28;20083;-56
2024/01/21 04:05:13;;;;;;;19.83;7.27;;;;;;;;;;5022127;28;20022;-57
2024/01/21 04:07:38;;;;;;;15.70;6.27;;;;;;;;;;5030929;28;20109;-56
2024/01/21 04:10:05;;;;;;;18.02;6.47;;;;;;;;;;5032993;28;20416;-56
2024/01/21 04:12:30;;;;;;;22.58;7.53;;;;;;;;;;5031281;28;20026;-56
2024/01/21 04:14:55;;;;;;;20.57;6.87;;;;;;;;;;5029354;28;20021;-56
2024/01/21 04:17:22;;;;;;;17.40;6.80;;;;;;;;;;5036662;28;20100;-57
2024/01/21 04:19:47;;;;;;;17.13;6.35;;;;;;;;;;5039435;28;20021;-57
2024/01/21 04:22:13;;;;;;;16.50;6.80;;;;;;;;;;5045610;28;20025;-56
2024/01/21 04:24:38;;;;;;;15.83;6.30;;;;;;;;;;5045748;28;20045;-56
2024/01/21 04:27:03;;;;;;;16.55;6.32;;;;;;;;;;5041193;28;20064;-56
2024/01/21 04:29:28;;;;;;;21.63;7.07;;;;;;;;;;5039038;28;20013;-57
2024/01/21 04:31:53;;;;;;;16.80;6.90;;;;;;;;;;5041537;28;20470;-56
2024/01/21 04:34:18;;;;;;;18.77;6.75;;;;;;;;;;5032193;28;20476;-56
2024/01/21 04:36:44;;;;;;;18.27;7.15;;;;;;;;;;5034483;28;20025;-57
2024/01/21 04:39:11;;;;;;;18.93;6.47;;;;;;;;;;5033549;28;20026;-56
2024/01/21 04:41:36;;;;;;;20.17;7.15;;;;;;;;;;5032044;28;20026;-55
2024/01/21 04:44:01;;;;;;;21.37;6.83;;;;;;;;;;5032807;28;20029;-56
2024/01/21 04:46:26;;;;;;;19.33;6.47;;;;;;;;;;5029526;28;20033;-56
2024/01/21 04:48:52;;;;;;;21.27;6.82;;;;;;;;;;5033576;28;20025;-56
2024/01/21 04:51:17;;;;;;;20.02;6.78;;;;;;;;;;5031802;28;20397;-56
2024/01/21 04:53:42;;;;;;;17.98;6.43;;;;;;;;;;5032437;28;20021;-56
2024/01/21 04:56:14;;;;;;;17.92;6.93;;;;;;;;;;5032463;28;20033;-55
2024/01/21 04:58:39;;;;;;;17.88;6.15;;;;;;;;;;5029106;28;20445;-56
2024/01/21 05:01:04;;;;;;;17.50;7.10;;;;;;;;;;5029490;28;20044;-56
2024/01/21 05:03:30;;;;;;;16.60;6.55;;;;;;;;;;5030827;28;20022;-55
2024/01/21 05:05:57;;;;;;;17.38;6.50;;;;;;;;;;5036888;28;20116;-57
2024/01/21 05:08:22;;;;;;;19.63;6.50;;;;;;;;;;5033470;28;20029;-56
2024/01/21 05:10:47;;;;;;;19.13;7.43;;;;;;;;;;5031595;28;20025;-56
2024/01/21 05:13:12;;;;;;;18.33;6.73;;;;;;;;;;5030026;28;20037;-56
2024/01/21 05:15:37;;;;;;;17.50;6.60;;;;;;;;;;5031487;28;20473;-56
2024/01/21 05:18:04;;;;;;;16.70;5.95;;;;;;;;;;5030885;28;20032;-56
2024/01/21 05:20:29;;;;;;;17.73;6.75;;;;;;;;;;5031157;28;20048;-56
2024/01/21 05:22:54;;;;;;;16.13;6.57;;;;;;;;;;5031302;28;20377;-56
2024/01/21 05:25:19;;;;;;;19.73;7.00;;;;;;;;;;5031733;28;20071;-56
2024/01/21 05:27:45;;;;;;;18.70;6.80;;;;;;;;;;5022966;28;20448;-55
2024/01/21 05:30:12;;;;;;;18.17;6.60;;;;;;;;;;5031497;28;20017;-58
2024/01/21 05:32:37;;;;;;;19.17;7.32;;;;;;;;;;5030985;28;20030;-56
2024/01/21 05:35:02;;;;;;;19.27;7.20;;;;;;;;;;5029866;28;20544;-57
2024/01/21 05:37:27;;;;;;;19.97;7.13;;;;;;;;;;5031455;28;20033;-57
2024/01/21 05:39:52;;;;;;;17.58;7.05;;;;;;;;;;5031397;28;20021;-56
2024/01/21 05:42:17;;;;;;;16.90;6.83;;;;;;;;;;5030081;28;20018;-56
2024/01/21 05:44:43;;;;;;;16.77;6.45;;;;;;;;;;5031676;28;20452;-56
2024/01/21 05:47:08;;;;;;;19.17;7.13;;;;;;;;;;5031714;28;20037;-56
2024/01/21 05:49:33;;;;;;;20.23;6.33;;;;;;;;;;5031106;28;20024;-56
2024/01/21 05:51:58;;;;;;;16.03;6.67;;;;;;;;;;5028955;28;20020;-58
2024/01/21 05:54:25;;;;;;;19.95;6.97;;;;;;;;;;5026702;28;20023;-56
2024/01/21 05:56:50;;;;;;;18.33;6.90;;;;;;;;;;5029677;28;20049;-57
2024/01/21 05:59:17;;;;;;;16.40;6.18;;;;;;;;;;5029681;28;20122;-56
2024/01/21 06:01:43;;;;;;;17.90;6.57;;;;;;;;;;5030993;28;20448;-56
2024/01/21 06:04:08;;;;;;;18.63;6.97;;;;;;;;;;5031189;28;20013;-56
2024/01/21 06:06:33;;;;;;;20.80;7.03;;;;;;;;;;5028522;28;20602;-57
2024/01/21 06:08:58;;;;;;;19.60;6.35;;;;;;;;;;5032104;28;20021;-56
2024/01/21 06:11:23;;;;;;;16.00;6.30;;;;;;;;;;5030437;28;20029;-56
2024/01/21 06:13:48;;;;;;;16.50;6.40;;;;;;;;;;5031767;28;20025;-56
2024/01/21 06:16:16;;;;;;;17.77;6.20;;;;;;;;;;5035131;28;20048;-57
2024/01/21 06:18:42;;;;;;;16.17;7.05;;;;;;;;;;5035111;28;20018;-55
2024/01/21 06:21:07;;;;;;;17.23;6.33;;;;;;;;;;5038618;28;20466;-57
2024/01/21 06:23:32;;;;;;;16.65;5.82;;;;;;;;;;5037031;28;20025;-57
2024/01/21 06:25:57;;;;;;;18.33;7.07;;;;;;;;;;5033422;28;20034;-57
2024/01/21 06:28:22;;;;;;;15.77;6.43;;;;;;;;;;5034630;28;20028;-57
2024/01/21 06:30:47;;;;;;;18.42;6.80;;;;;;;;;;5038376;28;20045;-57
2024/01/21 06:33:12;;;;;;;13.23;6.15;;;;;;;;;;5034560;28;20025;-56
2024/01/21 06:35:38;;;;;;;16.90;6.50;;;;;;;;;;5034492;28;20104;-56
2024/01/21 06:38:03;;;;;;;18.20;6.90;;;;;;;;;;5034886;28;20017;-57
2024/01/21 06:40:28;;;;;;;18.60;6.45;;;;;;;;;;5034297;28;20116;-56
2024/01/21 06:42:53;;;;;;;18.07;6.47;;;;;;;;;;5035888;28;20045;-56
2024/01/21 06:45:18;;;;;;;17.45;6.82;;;;;;;;;;5033919;28;20017;-56
2024/01/21 06:47:44;;;;;;;16.33;6.40;;;;;;;;;;5033606;28;20116;-56
2024/01/21 06:50:10;;;;;;;16.73;6.10;;;;;;;;;;5033121;28;20076;-56
2024/01/21 06:52:35;;;;;;;15.77;6.32;;;;;;;;;;5029130;28;20033;-57
2024/01/21 06:55:00;;;;;;;15.73;6.37;;;;;;;;;;5027828;28;20026;-57
2024/01/21 06:57:25;;;;;;;17.33;7.32;;;;;;;;;;5033796;28;20021;-57
2024/01/21 06:59:51;;;;;;;17.00;7.03;;;;;;;;;;5024501;28;20116;-56
2024/01/21 07:02:16;;;;;;;18.30;6.68;;;;;;;;;;5025550;28;20028;-57
2024/01/21 07:04:41;;;;;;;16.83;6.63;;;;;;;;;;5041237;28;20104;-56
2024/01/21 07:07:07;;;;;;;15.55;5.88;;;;;;;;;;5033722;28;20366;-56
2024/01/21 07:09:32;;;;;;;19.88;6.65;;;;;;;;;;5028349;28;20473;-56
2024/01/21 07:11:57;;;;;;;15.52;6.13;;;;;;;;;;5031454;28;20023;-57
2024/01/21 07:14:23;;;;;;;16.20;6.60;;;;;;;;;;5034071;28;20021;-55
2024/01/21 07:16:48;;;;;;;16.00;5.80;;;;;;;;;;5027671;28;20033;-56
2024/01/21 07:19:13;;;;;;;18.38;6.65;;;;;;;;;;5039693;28;20036;-57
2024/01/21 07:21:38;;;;;;;15.93;6.07;;;;;;;;;;5044592;28;20056;-57
2024/01/21 07:24:03;;;;;;;17.33;6.38;;;;;;;;;;5039148;28;20467;-56
2024/01/21 07:26:29;;;;;;;15.38;6.18;;;;;;;;;;5032079;28;20029;-58
2024/01/21 07:28:54;;;;;;;18.05;6.63;;;;;;;;;;5029226;28;20022;-56
2024/01/21 07:31:19;;;;;;;17.27;6.20;;;;;;;;;;5033102;28;20111;-56
2024/01/21 07:33:44;;;;;;;19.48;6.57;;;;;;;;;;5031577;28;20075;-57
2024/01/21 07:36:10;;;;;;;14.93;6.50;;;;;;;;;;5028956;28;20028;-57
2024/01/21 07:38:35;;;;;;;15.68;6.13;;;;;;;;;;5026210;28;20044;-57
2024/01/21 07:41:00;;;;;;;14.50;5.80;;;;;;;;;;5023415;28;20029;-56
2024/01/21 07:43:26;;;;;;;15.10;5.55;;;;;;;;;;5025556;28;20427;-57
2024/01/21 07:45:51;;;;;;;20.33;6.27;;;;;;;;;;5027206;28;20033;-56
2024/01/21 07:48:16;;;;;;;13.00;5.60;;;;;;;;;;5028216;28;20032;-56
2024/01/21 07:50:41;;;;;;;15.77;6.47;;;;;;;;;;5025393;28;20026;-57
2024/01/21 07:53:06;;;;;;;15.13;6.27;;;;;;;;;;5026956;28;20029;-56
2024/01/21 07:55:32;;;;;;;18.27;6.72;;;;;;;;;;5019764;28;20122;-56
2024/01/21 07:57:57;;;;;;;15.47;6.37;;;;;;;;;;5024187;28;20032;-55
2024/01/21 08:00:23;;;;;;;17.00;6.47;;;;;;;;;;5031489;28;20089;-57
2024/01/21 08:02:48;;;;;;;16.38;6.70;;;;;;;;;;5031595;28;20381;-57
2024/01/21 08:05:13;;;;;;;17.48;6.72;;;;;;;;;;5031105;28;20041;-57
2024/01/21 08:07:38;;;;;;;18.00;6.88;;;;;;;;;;5030180;28;20045;-56
2024/01/21 08:10:04;;;;;;;18.55;6.70;;;;;;;;;;5030523;28;20512;-56
2024/01/21 08:12:30;;;;;;;16.08;6.38;;;;;;;;;;5027209;28;20024;-58
2024/01/21 08:14:55;;;;;;;18.15;6.75;;;;;;;;;;5022199;28;20017;-56
2024/01/21 08:17:20;;;;;;;19.92;6.70;;;;;;;;;;5032477;28;20022;-57
2024/01/21 08:19:45;;;;;;;18.50;7.03;;;;;;;;;;5032220;28;20083;-56
2024/01/21 08:22:10;;;;;;;16.98;7.03;;;;;;;;;;5030059;28;20024;-56
2024/01/21 08:24:36;;;;;;;18.95;6.90;;;;;;;;;;5041722;28;20038;-56
2024/01/21 08:27:01;;;;;;;20.20;7.60;;;;;;;;;;5030755;28;20033;-56
2024/01/21 08:29:27;;;;;;;17.63;7.68;;;;;;;;;;5040271;28;20061;-57
2024/01/21 08:31:52;;;;;;;17.02;7.28;;;;;;;;;;5040095;28;20035;-56
2024/01/21 08:34:17;;;;;;;16.55;7.47;;;;;;;;;;5033835;28;20025;-56
2024/01/21 08:36:43;;;;;;;18.20;7.88;;;;;;;;;;5032139;28;20519;-57
2024/01/21 08:39:09;;;;;;;18.48;7.65;;;;;;;;;;5031671;28;20032;-57
2024/01/21 08:41:34;;;;;;;16.55;6.90;;;;;;;;;;5024605;28;20147;-59
2024/01/21 08:44:00;;;;;;;19.48;7.00;;;;;;;;;;5030126;28;20021;-57
2024/01/21 08:46:25;;;;;;;19.67;7.43;;;;;;;;;;5016933;28;21002;-57
2024/01/21 08:48:50;;;;;;;19.38;7.90;;;;;;;;;;5030930;28;20033;-57
2024/01/21 08:51:15;;;;;;;14.98;7.15;;;;;;;;;;5033959;28;20166;-56
2024/01/21 08:53:40;;;;;;;15.20;7.27;;;;;;;;;;5032056;28;20025;-58
2024/01/21 08:56:05;;;;;;;19.77;7.65;;;;;;;;;;5028567;28;20052;-57
2024/01/21 08:58:31;;;;;;;19.23;7.07;;;;;;;;;;5028860;28;20029;-59
2024/01/21 09:00:56;;;;;;;16.45;7.43;;;;;;;;;;5029722;28;20496;-57
2024/01/21 09:03:21;;;;;;;16.90;7.10;;;;;;;;;;5031829;28;20028;-57
2024/01/21 09:05:46;;;;;;;16.20;7.10;;;;;;;;;;5030166;28;20033;-56
2024/01/21 09:08:11;;;;;;;18.42;7.15;;;;;;;;;;5032664;28;20021;-56
2024/01/21 09:10:36;;;;;;;17.97;7.17;;;;;;;;;;5029374;28;20105;-57
2024/01/21 09:13:02;;;;;;;17.73;7.50;;;;;;;;;;5026597;28;20017;-57
2024/01/21 09:15:27;;;;;;;15.20;6.30;;;;;;;;;;5033587;28;20029;-57
2024/01/21 09:17:52;;;;;;;16.67;6.70;;;;;;;;;;5034656;28;20444;-56
2024/01/21 09:20:17;;;;;;;16.38;6.93;;;;;;;;;;5036435;28;20052;-57
2024/01/21 09:22:42;;;;;;;15.67;6.23;;;;;;;;;;5035413;28;20017;-57
2024/01/21 09:25:08;;;;;;;17.23;7.30;;;;;;;;;;5035268;28;20029;-56
2024/01/21 09:27:33;;;;;;;17.00;6.23;;;;;;;;;;5035110;28;20041;-57
2024/01/21 09:29:58;;;;;;;16.33;6.60;;;;;;;;;;5035810;28;20420;-57
2024/01/21 09:32:23;;;;;;;16.47;6.67;;;;;;;;;;5033277;28;20033;-56
2024/01/21 09:34:49;;;;;;;15.27;6.30;;;;;;;;;;5033450;28;20099;-56
2024/01/21 09:37:14;;;;;;;14.98;6.00;;;;;;;;;;5034489;28;20096;-56
2024/01/21 09:39:39;;;;;;;14.20;6.23;;;;;;;;;;5035527;28;20059;-57
2024/01/21 09:42:05;;;;;;;15.15;6.30;;;;;;;;;;5029746;28;20026;-57
2024/01/21 09:44:30;;;;;;;13.65;5.70;;;;;;;;;;5030777;28;20018;-57
2024/01/21 09:46:56;;;;;;;13.85;6.20;;;;;;;;;;5032034;28;20029;-58
2024/01/21 09:49:24;;;;;;;15.73;6.63;;;;;;;;;;5031611;28;20481;-56
2024/01/21 09:51:49;;;;;;;14.02;6.22;;;;;;;;;;5031771;28;20497;-57
2024/01/21 09:54:15;;;;;;;14.13;6.32;;;;;;;;;;5032337;28;20056;-58
2024/01/21 09:56:43;;;;;;;14.53;5.90;;;;;;;;;;5032280;28;20031;-57
2024/01/21 09:59:09;;;;;;;17.30;6.50;;;;;;;;;;5032907;28;20025;-57
2024/01/21 10:01:35;;;;;;;12.48;5.63;;;;;;;;;;5033018;28;20413;-57
2024/01/21 10:04:01;;;;;;;15.85;6.20;;;;;;;;;;5033943;28;20013;-57
2024/01/21 10:06:26;;;;;;;14.67;6.30;;;;;;;;;;5024825;28;20044;-57
2024/01/21 10:08:51;;;;;;;13.68;6.07;;;;;;;;;;5029588;28;20033;-56
2024/01/21 10:11:16;;;;;;;13.13;5.50;;;;;;;;;;5032756;28;20052;-56
2024/01/21 10:13:42;;;;;;;13.63;5.23;;;;;;;;;;5031760;28;20112;-57
2024/01/21 10:16:08;;;;;;;15.95;5.85;;;;;;;;;;5030722;28;20023;-57
2024/01/21 10:18:34;;;;;;;13.57;5.53;;;;;;;;;;5027365;28;20396;-57
2024/01/21 10:21:02;;;;;;;13.43;5.88;;;;;;;;;;5031106;28;20026;-57
2024/01/21 10:23:27;;;;;;;14.65;5.80;;;;;;;;;;5030224;28;20462;-56
2024/01/21 10:25:52;;;;;;;14.10;6.00;;;;;;;;;;5029310;28;20112;-56
2024/01/21 10:28:17;;;;;;;13.30;5.73;;;;;;;;;;5031521;28;20029;-58
2024/01/21 10:30:46;;;;;;;13.85;6.05;;;;;;;;;;5036391;28;20028;-56
2024/01/21 10:33:13;;;;;;;13.20;5.80;;;;;;;;;;5034504;28;20025;-57
2024/01/21 10:35:38;;;;;;;13.15;5.82;;;;;;;;;;5022625;28;20018;-57
2024/01/21 10:38:06;;;;;;;13.50;6.17;;;;;;;;;;5028669;28;20079;-57
2024/01/21 10:40:31;;;;;;;13.82;5.85;;;;;;;;;;5029326;28;20029;-55
2024/01/21 10:42:59;;;;;;;13.32;5.50;;;;;;;;;;5031283;28;20487;-57
2024/01/21 10:45:24;;;;;;;15.40;6.25;;;;;;;;;;5028797;28;20539;-57
2024/01/21 10:47:50;;;;;;;13.20;5.60;;;;;;;;;;5028740;28;20025;-57
2024/01/21 10:50:16;;;;;;;13.40;6.10;;;;;;;;;;5035256;28;20024;-57
2024/01/21 10:52:43;;;;;;;13.13;5.90;;;;;;;;;;5033364;28;20056;-57
2024/01/21 10:55:09;;;;;;;13.00;5.30;;;;;;;;;;5034288;28;20014;-56
2024/01/21 10:57:34;;;;;;;12.37;5.40;;;;;;;;;;5029602;28;20028;-57
2024/01/21 10:59:59;;;;;;;15.00;5.70;;;;;;;;;;5031625;28;20044;-57
2024/01/21 11:02:24;;;;;;;13.40;5.63;;;;;;;;;;5034103;28;20013;-58
2024/01/21 11:04:49;;;;;;;13.10;5.90;;;;;;;;;;5035325;28;20017;-57
2024/01/21 11:07:16;;;;;;;15.00;5.43;;;;;;;;;;5032534;28;20574;-56
2024/01/21 11:09:42;;;;;;;14.43;5.45;;;;;;;;;;5032968;28;20057;-56
2024/01/21 11:12:08;;;;;;;14.30;5.78;;;;;;;;;;5029645;28;20418;-58
2024/01/21 11:14:37;;;;;;;12.88;5.45;;;;;;;;;;5033404;28;20087;-57
2024/01/21 11:17:06;;;;;;;16.38;5.10;;;;;;;;;;5035365;28;20029;-57
2024/01/21 11:19:42;;;;;;;12.85;5.78;;;;;;;;;;5034255;28;20101;-56
2024/01/21 11:22:13;;;;;;;12.23;5.55;;;;;;;;;;5034108;28;20076;-56
2024/01/21 11:24:40;;;;;;;12.55;5.68;;;;;;;;;;5035214;28;20029;-58
2024/01/21 11:27:13;;;;;;;12.52;5.80;;;;;;;;;;5033426;28;20067;-57
2024/01/21 11:29:39;;;;;;;13.25;5.85;;;;;;;;;;5034969;28;20117;-58
2024/01/21 11:32:05;;;;;;;16.33;5.70;;;;;;;;;;5035521;28;20116;-58
2024/01/21 11:34:37;;;;;;;14.95;5.55;;;;;;;;;;5035783;28;20044;-56
2024/01/21 11:37:03;;;;;;;17.95;5.65;;;;;;;;;;5037255;28;20600;-57
2024/01/21 11:39:28;;;;;;;14.35;5.63;;;;;;;;;;5037752;28;20041;-57
2024/01/21 11:41:54;;;;;;;15.00;5.80;;;;;;;;;;5034744;28;20520;-56
2024/01/21 11:44:28;;;;;;;12.47;5.60;;;;;;;;;;5026293;28;20031;-57
2024/01/21 11:46:55;;;;;;;14.85;5.85;;;;;;;;;;5035301;28;20501;-58
2024/01/21 11:49:21;;;;;;;13.60;5.82;;;;;;;;;;5031612;28;20025;-56
2024/01/21 11:51:46;;;;;;;14.75;5.50;;;;;;;;;;5032129;28;20047;-56
2024/01/21 11:54:12;;;;;;;13.00;5.47;;;;;;;;;;5026293;28;20028;-58
2024/01/21 11:56:38;;;;;;;15.68;5.28;;;;;;;;;;5023316;28;20510;-56
2024/01/21 11:59:07;;;;;;;14.90;5.63;;;;;;;;;;5033396;28;20017;-58
2024/01/21 12:01:33;;;;;;;13.75;5.05;;;;;;;;;;5023817;28;20418;-57
2024/01/21 12:04:00;;;;;;;12.77;5.32;;;;;;;;;;5025492;28;20528;-56
2024/01/21 12:06:25;;;;;;;12.55;4.90;;;;;;;;;;5029689;28;20034;-56
2024/01/21 12:08:51;;;;;;;13.88;5.25;;;;;;;;;;5031081;28;20017;-57
2024/01/21 12:11:16;;;;;;;10.70;4.80;;;;;;;;;;5032590;28;20393;-57
2024/01/21 12:13:43;;;;;;;10.50;4.63;;;;;;;;;;5032440;28;20437;-57
2024/01/21 12:16:08;;;;;;;12.15;4.60;;;;;;;;;;5032778;28;20370;-57
2024/01/21 12:18:40;;;;;;;13.07;5.27;;;;;;;;;;5032622;28;20059;-56
2024/01/21 12:21:05;;;;;;;11.70;4.68;;;;;;;;;;5031739;28;20456;-57
2024/01/21 12:23:31;;;;;;;12.87;4.97;;;;;;;;;;5031472;28;20040;-56
2024/01/21 12:25:56;;;;;;;14.30;5.15;;;;;;;;;;5031239;28;20408;-57
2024/01/21 12:28:21;;;;;;;13.98;5.35;;;;;;;;;;5031417;28;20017;-56
2024/01/21 12:30:47;;;;;;;13.13;5.03;;;;;;;;;;5043258;28;20017;-56
2024/01/21 12:33:12;;;;;;;10.60;4.68;;;;;;;;;;5041859;28;20033;-57
2024/01/21 12:35:37;;;;;;;11.60;4.97;;;;;;;;;;5051738;28;20036;-57
2024/01/21 12:38:03;;;;;;;13.38;5.35;;;;;;;;;;5049655;28;20452;-57
2024/01/21 12:40:28;;;;;;;11.65;4.90;;;;;;;;;;5042615;28;20048;-58
2024/01/21 12:42:54;;;;;;;13.97;5.20;;;;;;;;;;5044422;28;20029;-57
2024/01/21 12:45:19;;;;;;;13.05;4.75;;;;;;;;;;5034972;28;20029;-57
2024/01/21 12:47:44;;;;;;;9.57;4.25;;;;;;;;;;5029812;28;20051;-59
2024/01/21 12:50:09;;;;;;;12.77;4.50;;;;;;;;;;5028936;28;20378;-58
2024/01/21 12:52:35;;;;;;;13.60;4.30;;;;;;;;;;5030820;28;20019;-57
2024/01/21 12:55:01;;;;;;;10.77;4.38;;;;;;;;;;5025143;28;20456;-57
2024/01/21 12:57:30;;;;;;;10.63;4.30;;;;;;;;;;5024298;28;20029;-57
2024/01/21 12:59:56;;;;;;;10.88;3.97;;;;;;;;;;5020308;28;20108;-57
2024/01/21 13:02:21;;;;;;;11.25;4.28;;;;;;;;;;5032364;28;20022;-56
2024/01/21 13:04:46;;;;;;;11.23;4.83;;;;;;;;;;5032536;28;20028;-57
2024/01/21 13:07:11;;;;;;;11.60;4.63;;;;;;;;;;5029975;28;20468;-58
2024/01/21 13:09:36;;;;;;;12.27;4.63;;;;;;;;;;5032121;28;20041;-58
2024/01/21 13:12:02;;;;;;;14.90;5.10;;;;;;;;;;5035227;28;20432;-57
2024/01/21 13:14:30;;;;;;;10.10;4.75;;;;;;;;;;5034370;28;20041;-56
2024/01/21 13:16:56;;;;;;;12.82;5.03;;;;;;;;;;5030434;28;20080;-57
2024/01/21 13:19:22;;;;;;;12.02;4.53;;;;;;;;;;5031704;28;20413;-57
2024/01/21 13:21:47;;;;;;;11.48;4.53;;;;;;;;;;5032472;28;20082;-57
2024/01/21 13:24:12;;;;;;;12.70;4.68;;;;;;;;;;5031671;28;20056;-58
2024/01/21 13:26:40;;;;;;;12.20;4.80;;;;;;;;;;5033547;28;20045;-58
2024/01/21 13:31:34;;;;;;;10.98;4.65;;;;;;;;;;5026901;28;20057;-57
2024/01/21 13:34:01;;;;;;;9.80;3.85;;;;;;;;;;5023093;28;20073;-57
2024/01/21 13:36:26;;;;;;;11.25;4.45;;;;;;;;;;5026763;28;20140;-57
2024/01/21 13:38:55;;;;;;;12.60;4.60;;;;;;;;;;5024789;28;20065;-56
2024/01/21 13:41:21;;;;;;;9.32;4.10;;;;;;;;;;5026180;28;20100;-57
2024/01/21 13:43:46;;;;;;;9.30;4.22;;;;;;;;;;5022049;28;20166;-58
2024/01/21 13:46:11;;;;;;;10.47;3.80;;;;;;;;;;5027248;28;20041;-57
2024/01/21 13:48:36;;;;;;;13.23;4.20;;;;;;;;;;5026928;28;20089;-57
2024/01/21 13:51:02;;;;;;;10.57;4.30;;;;;;;;;;5025110;28;20112;-57
2024/01/21 13:53:28;;;;;;;10.15;4.40;;;;;;;;;;5027071;28;20029;-57
2024/01/21 13:55:53;;;;;;;12.68;5.15;;;;;;;;;;5024876;28;20033;-57
2024/01/21 13:58:19;;;;;;;12.18;4.50;;;;;;;;;;5028508;28;20100;-58
2024/01/21 14:00:45;;;;;;;9.90;4.35;;;;;;;;;;5026077;28;20061;-56
2024/01/21 14:03:10;;;;;;;11.35;4.63;;;;;;;;;;5031028;28;20029;-57
2024/01/21 14:05:38;;;;;;;15.17;4.60;;;;;;;;;;5032043;28;20025;-57
2024/01/21 14:08:03;;;;;;;11.48;4.53;;;;;;;;;;5031008;28;20036;-58
2024/01/21 14:10:28;;;;;;;12.23;5.10;;;;;;;;;;5036595;28;20029;-60
2024/01/21 14:12:54;;;;;;;11.33;4.10;;;;;;;;;;5024909;28;20056;-57
2024/01/21 14:15:19;;;;;;;14.20;4.73;;;;;;;;;;5027310;28;20025;-57
2024/01/21 14:17:45;;;;;;;15.03;4.80;;;;;;;;;;5032599;28;20555;-57
2024/01/21 14:20:10;;;;;;;12.93;4.50;;;;;;;;;;5026945;28;20026;-58
2024/01/21 14:22:39;;;;;;;11.27;4.43;;;;;;;;;;5028488;28;20029;-57